sensor_id;sensor_type;location;lat;lon;timestamp;temperature;humidity
1165;DHT22;571;50.930;6.926;2022-11-20T03:46:28;5.30;96.90
1165;DHT22;571;50.930;6.926;2022-11-20T03:48:56;5.30;96.60
1165;DHT22;571;50.930;6.926;2022-11-20T03:51:26;5.10;97.30
1165;DHT22;571;50.930;6.926;2022-11-20T03:53:55;5.40;96.80
1165;DHT22;571;50.930;6.926;2022-11-20T03:56:24;5.40;96.80
1165;DHT22;571;50.930;6.926;2022-11-20T03:58:51;5.40;96.70
1165;DHT22;571;50.930;6.926;2022-11-20T04:01:19;5.00;96.90
1165;DHT22;571;50.930;6.926;2022-11-20T04:03:49;5.10;97.10
1165;DHT22;571;50.930;6.926;2022-11-20T04:06:20;5.00;97.90
1165;DHT22;571;50.930;6.926;2022-11-20T04:08:47;5.20;97.80
1165;DHT22;571;50.930;6.926;2022-11-20T04:11:16;5.20;97.50
1165;DHT22;571;50.930;6.926;2022-11-20T04:13:47;5.20;97.70
1165;DHT22;571;50.930;6.926;2022-11-20T04:16:14;4.90;98.20
1165;DHT22;571;50.930;6.926;2022-11-20T04:18:41;5.10;98.10
1165;DHT22;571;50.930;6.926;2022-11-20T04:21:10;5.20;97.70
1165;DHT22;571;50.930;6.926;2022-11-20T04:23:37;5.10;98.40
1165;DHT22;571;50.930;6.926;2022-11-20T04:26:06;4.90;98.80
1165;DHT22;571;50.930;6.926;2022-11-20T04:28:33;4.80;99.00
1165;DHT22;571;50.930;6.926;2022-11-20T04:31:05;4.90;99.10
1165;DHT22;571;50.930;6.926;2022-11-20T04:33:31;5.20;98.30
1165;DHT22;571;50.930;6.926;2022-11-20T04:36:04;5.10;98.40
1165;DHT22;571;50.930;6.926;2022-11-20T04:38:33;5.10;98.30
1165;DHT22;571;50.930;6.926;2022-11-20T04:41:02;4.90;98.90
1165;DHT22;571;50.930;6.926;2022-11-20T04:43:29;4.80;98.60
1165;DHT22;571;50.930;6.926;2022-11-20T04:45:57;4.70;98.90
1165;DHT22;571;50.930;6.926;2022-11-20T04:48:25;4.70;99.50
1165;DHT22;571;50.930;6.926;2022-11-20T04:50:52;4.80;99.00
1165;DHT22;571;50.930;6.926;2022-11-20T04:53:20;4.70;99.60
1165;DHT22;571;50.930;6.926;2022-11-20T04:55:48;4.50;99.90
1165;DHT22;571;50.930;6.926;2022-11-20T04:58:15;4.70;99.90
1165;DHT22;571;50.930;6.926;2022-11-20T05:00:42;4.70;99.80
1165;DHT22;571;50.930;6.926;2022-11-20T05:03:09;4.70;99.90
1165;DHT22;571;50.930;6.926;2022-11-20T05:05:36;4.60;99.90
1165;DHT22;571;50.930;6.926;2022-11-20T05:08:03;4.70;99.90
1165;DHT22;571;50.930;6.926;2022-11-20T05:10:30;4.70;99.90
1165;DHT22;571;50.930;6.926;2022-11-20T05:12:58;4.90;99.90
1165;DHT22;571;50.930;6.926;2022-11-20T05:15:25;4.70;99.70
1165;DHT22;571;50.930;6.926;2022-11-20T05:17:52;4.70;99.80
1165;DHT22;571;50.930;6.926;2022-11-20T05:20:19;5.10;98.90
1165;DHT22;571;50.930;6.926;2022-11-20T05:22:46;5.10;98.90
1165;DHT22;571;50.930;6.926;2022-11-20T05:25:13;5.00;99.30
1165;DHT22;571;50.930;6.926;2022-11-20T05:27:40;4.80;99.90
1165;DHT22;571;50.930;6.926;2022-11-20T05:30:09;4.80;99.90
1165;DHT22;571;50.930;6.926;2022-11-20T05:32:36;4.80;99.90
1165;DHT22;571;50.930;6.926;2022-11-20T05:35:04;4.80;99.90
1165;DHT22;571;50.930;6.926;2022-11-20T05:37:31;4.90;99.40
1165;DHT22;571;50.930;6.926;2022-11-20T05:39:58;5.00;99.40
1165;DHT22;571;50.930;6.926;2022-11-20T05:42:25;4.90;99.90
1165;DHT22;571;50.930;6.926;2022-11-20T05:44:57;4.90;99.90
1165;DHT22;571;50.930;6.926;2022-11-20T05:47:26;5.00;99.30
1165;DHT22;571;50.930;6.926;2022-11-20T05:49:53;5.20;98.70
1165;DHT22;571;50.930;6.926;2022-11-20T05:52:20;5.10;99.20
1165;DHT22;571;50.930;6.926;2022-11-20T05:54:47;5.00;99.50
1165;DHT22;571;50.930;6.926;2022-11-20T05:57:14;4.90;99.50
1165;DHT22;571;50.930;6.926;2022-11-20T05:59:41;4.90;99.80
1165;DHT22;571;50.930;6.926;2022-11-20T06:02:07;5.00;99.10
1165;DHT22;571;50.930;6.926;2022-11-20T06:04:35;4.90;99.80
1165;DHT22;571;50.930;6.926;2022-11-20T06:07:02;4.80;99.90
1165;DHT22;571;50.930;6.926;2022-11-20T06:09:29;5.00;99.90
1165;DHT22;571;50.930;6.926;2022-11-20T06:11:56;5.00;99.90
1165;DHT22;571;50.930;6.926;2022-11-20T06:14:22;5.00;99.70
1165;DHT22;571;50.930;6.926;2022-11-20T06:16:49;5.10;99.00
1165;DHT22;571;50.930;6.926;2022-11-20T06:19:16;5.00;99.20
1165;DHT22;571;50.930;6.926;2022-11-20T06:21:44;4.90;99.90
1165;DHT22;571;50.930;6.926;2022-11-20T06:24:11;5.10;99.60
1165;DHT22;571;50.930;6.926;2022-11-20T06:26:38;5.00;99.90
1165;DHT22;571;50.930;6.926;2022-11-20T06:29:04;4.90;99.90
1165;DHT22;571;50.930;6.926;2022-11-20T06:31:31;4.80;99.90
1165;DHT22;571;50.930;6.926;2022-11-20T06:34:00;4.80;99.90
1165;DHT22;571;50.930;6.926;2022-11-20T06:36:27;4.80;99.90
1165;DHT22;571;50.930;6.926;2022-11-20T06:38:55;4.80;99.90
1165;DHT22;571;50.930;6.926;2022-11-20T06:41:22;4.80;99.90
1165;DHT22;571;50.930;6.926;2022-11-20T06:43:49;4.70;99.90
1165;DHT22;571;50.930;6.926;2022-11-20T06:46:17;4.80;99.90
1165;DHT22;571;50.930;6.926;2022-11-20T06:48:44;5.10;99.90
1165;DHT22;571;50.930;6.926;2022-11-20T06:51:11;5.00;99.50
1165;DHT22;571;50.930;6.926;2022-11-20T06:53:38;5.00;99.90
1165;DHT22;571;50.930;6.926;2022-11-20T06:56:07;4.90;99.90
1165;DHT22;571;50.930;6.926;2022-11-20T06:58:35;4.80;99.90
1165;DHT22;571;50.930;6.926;2022-11-20T07:01:04;4.80;99.90
1165;DHT22;571;50.930;6.926;2022-11-20T07:03:31;4.80;99.90
1165;DHT22;571;50.930;6.926;2022-11-20T07:05:58;4.90;99.90
1165;DHT22;571;50.930;6.926;2022-11-20T07:08:26;4.80;99.90
1165;DHT22;571;50.930;6.926;2022-11-20T07:10:57;5.20;99.90
1165;DHT22;571;50.930;6.926;2022-11-20T07:13:25;5.20;99.20
1165;DHT22;571;50.930;6.926;2022-11-20T07:15:52;5.40;99.00
1165;DHT22;571;50.930;6.926;2022-11-20T07:18:19;5.70;98.00
1165;DHT22;571;50.930;6.926;2022-11-20T07:20:45;5.80;97.80
1165;DHT22;571;50.930;6.926;2022-11-20T07:23:12;5.40;98.30
1165;DHT22;571;50.930;6.926;2022-11-20T07:25:39;5.20;99.10
1165;DHT22;571;50.930;6.926;2022-11-20T07:28:05;5.10;99.70
1165;DHT22;571;50.930;6.926;2022-11-20T07:30:33;5.00;99.40
1165;DHT22;571;50.930;6.926;2022-11-20T07:33:00;5.00;99.40
1165;DHT22;571;50.930;6.926;2022-11-20T07:35:27;5.00;99.40
1165;DHT22;571;50.930;6.926;2022-11-20T07:37:54;5.00;99.90
1165;DHT22;571;50.930;6.926;2022-11-20T07:40:20;5.00;99.90
1165;DHT22;571;50.930;6.926;2022-11-20T07:42:48;5.10;99.90
1165;DHT22;571;50.930;6.926;2022-11-20T07:45:15;5.50;98.60
1165;DHT22;571;50.930;6.926;2022-11-20T07:47:43;5.50;97.60
1165;DHT22;571;50.930;6.926;2022-11-20T07:50:10;5.30;98.40
1165;DHT22;571;50.930;6.926;2022-11-20T07:52:37;5.20;98.20
1165;DHT22;571;50.930;6.926;2022-11-20T07:55:04;5.20;98.90
1165;DHT22;571;50.930;6.926;2022-11-20T07:57:31;5.30;98.70
1165;DHT22;571;50.930;6.926;2022-11-20T07:59:58;5.30;98.80
1165;DHT22;571;50.930;6.926;2022-11-20T08:02:25;5.30;99.20
1165;DHT22;571;50.930;6.926;2022-11-20T08:04:53;5.30;99.20
1165;DHT22;571;50.930;6.926;2022-11-20T08:07:20;5.40;99.30
1165;DHT22;571;50.930;6.926;2022-11-20T08:09:46;5.40;99.60
1165;DHT22;571;50.930;6.926;2022-11-20T08:12:18;5.40;99.90
1165;DHT22;571;50.930;6.926;2022-11-20T08:15:03;5.70;99.40
1165;DHT22;571;50.930;6.926;2022-11-20T08:17:30;5.70;99.00
1165;DHT22;571;50.930;6.926;2022-11-20T08:19:58;5.80;98.60
1165;DHT22;571;50.930;6.926;2022-11-20T08:22:25;5.80;98.70
1165;DHT22;571;50.930;6.926;2022-11-20T08:24:51;6.10;97.90
1165;DHT22;571;50.930;6.926;2022-11-20T08:27:18;6.00;98.10
1165;DHT22;571;50.930;6.926;2022-11-20T08:29:45;6.20;97.70
1165;DHT22;571;50.930;6.926;2022-11-20T08:32:11;5.90;98.50
1165;DHT22;571;50.930;6.926;2022-11-20T08:34:38;5.80;99.50
1165;DHT22;571;50.930;6.926;2022-11-20T08:37:06;5.90;99.10
1165;DHT22;571;50.930;6.926;2022-11-20T08:39:33;5.90;99.00
1165;DHT22;571;50.930;6.926;2022-11-20T08:42:00;5.70;99.90
1165;DHT22;571;50.930;6.926;2022-11-20T08:44:27;5.80;99.60
1165;DHT22;571;50.930;6.926;2022-11-20T08:46:54;6.20;98.30
1165;DHT22;571;50.930;6.926;2022-11-20T08:49:20;6.10;98.10
1165;DHT22;571;50.930;6.926;2022-11-20T08:51:47;6.00;98.90
1165;DHT22;571;50.930;6.926;2022-11-20T08:54:19;6.10;98.50
1165;DHT22;571;50.930;6.926;2022-11-20T08:56:47;6.00;99.20
1165;DHT22;571;50.930;6.926;2022-11-20T08:59:14;5.90;99.20
1165;DHT22;571;50.930;6.926;2022-11-20T09:01:41;5.80;99.50
1165;DHT22;571;50.930;6.926;2022-11-20T09:04:07;5.90;99.40
1165;DHT22;571;50.930;6.926;2022-11-20T09:06:34;5.90;99.30
1165;DHT22;571;50.930;6.926;2022-11-20T09:09:01;5.90;99.90
1165;DHT22;571;50.930;6.926;2022-11-20T09:11:29;5.90;99.90
1165;DHT22;571;50.930;6.926;2022-11-20T09:13:56;6.00;99.90
1165;DHT22;571;50.930;6.926;2022-11-20T09:16:22;6.30;98.80
1165;DHT22;571;50.930;6.926;2022-11-20T09:18:50;6.30;98.50
1165;DHT22;571;50.930;6.926;2022-11-20T09:21:16;6.30;98.40
1165;DHT22;571;50.930;6.926;2022-11-20T09:23:43;6.30;98.60
1165;DHT22;571;50.930;6.926;2022-11-20T09:26:12;6.20;98.80
1165;DHT22;571;50.930;6.926;2022-11-20T09:28:41;6.10;98.40
1165;DHT22;571;50.930;6.926;2022-11-20T09:31:08;6.10;98.30
1165;DHT22;571;50.930;6.926;2022-11-20T09:33:36;6.30;98.70
1165;DHT22;571;50.930;6.926;2022-11-20T09:36:03;6.30;98.90
1165;DHT22;571;50.930;6.926;2022-11-20T09:38:29;6.30;99.10
1165;DHT22;571;50.930;6.926;2022-11-20T09:40:58;6.30;99.30
1165;DHT22;571;50.930;6.926;2022-11-20T09:43:38;6.40;98.60
1165;DHT22;571;50.930;6.926;2022-11-20T09:46:12;6.90;97.60
1165;DHT22;571;50.930;6.926;2022-11-20T09:48:48;7.20;96.10
1165;DHT22;571;50.930;6.926;2022-11-20T09:51:26;7.30;95.90
1165;DHT22;571;50.930;6.926;2022-11-20T09:54:04;7.30;96.00
1165;DHT22;571;50.930;6.926;2022-11-20T09:56:34;7.00;96.60
1165;DHT22;571;50.930;6.926;2022-11-20T09:59:05;6.90;97.10
1165;DHT22;571;50.930;6.926;2022-11-20T10:01:36;6.80;97.20
1165;DHT22;571;50.930;6.926;2022-11-20T10:04:10;6.90;97.40
1165;DHT22;571;50.930;6.926;2022-11-20T10:06:43;7.20;96.40
1165;DHT22;571;50.930;6.926;2022-11-20T10:09:20;7.00;96.90
1165;DHT22;571;50.930;6.926;2022-11-20T10:11:55;7.20;97.30
1165;DHT22;571;50.930;6.926;2022-11-20T10:14:30;7.40;96.30
1165;DHT22;571;50.930;6.926;2022-11-20T10:17:11;7.10;97.40
1165;DHT22;571;50.930;6.926;2022-11-20T10:19:52;7.00;97.90
1165;DHT22;571;50.930;6.926;2022-11-20T10:22:32;6.90;97.70
1165;DHT22;571;50.930;6.926;2022-11-20T10:25:06;7.10;97.00
1165;DHT22;571;50.930;6.926;2022-11-20T10:28:10;7.00;97.30
1165;DHT22;571;50.930;6.926;2022-11-20T10:30:42;6.80;98.30
1165;DHT22;571;50.930;6.926;2022-11-20T10:33:15;7.00;97.90
1165;DHT22;571;50.930;6.926;2022-11-20T10:35:45;7.10;97.70
1165;DHT22;571;50.930;6.926;2022-11-20T10:38:21;6.90;98.10
1165;DHT22;571;50.930;6.926;2022-11-20T10:40:53;6.90;98.80
1165;DHT22;571;50.930;6.926;2022-11-20T10:43:41;7.00;98.20
1165;DHT22;571;50.930;6.926;2022-11-20T10:46:12;7.00;99.00
1165;DHT22;571;50.930;6.926;2022-11-20T10:48:43;7.00;98.90
1165;DHT22;571;50.930;6.926;2022-11-20T10:51:21;7.50;97.20
1165;DHT22;571;50.930;6.926;2022-11-20T10:53:57;7.60;96.70
1165;DHT22;571;50.930;6.926;2022-11-20T10:56:30;7.30;97.60
1165;DHT22;571;50.930;6.926;2022-11-20T10:59:11;7.00;98.10
1165;DHT22;571;50.930;6.926;2022-11-20T11:01:42;6.80;98.20
1165;DHT22;571;50.930;6.926;2022-11-20T11:04:23;6.90;98.60
1165;DHT22;571;50.930;6.926;2022-11-20T11:06:56;7.00;98.10
1165;DHT22;571;50.930;6.926;2022-11-20T11:09:32;7.00;98.00
1165;DHT22;571;50.930;6.926;2022-11-20T11:11:59;6.90;98.60
1165;DHT22;571;50.930;6.926;2022-11-20T11:14:26;6.90;98.80
1165;DHT22;571;50.930;6.926;2022-11-20T11:16:54;7.20;97.90
1165;DHT22;571;50.930;6.926;2022-11-20T11:19:23;7.10;98.10
1165;DHT22;571;50.930;6.926;2022-11-20T11:21:52;7.10;98.10
1165;DHT22;571;50.930;6.926;2022-11-20T11:24:22;7.10;98.30
1165;DHT22;571;50.930;6.926;2022-11-20T11:26:57;7.20;98.40
1165;DHT22;571;50.930;6.926;2022-11-20T11:29:24;7.30;98.40
1165;DHT22;571;50.930;6.926;2022-11-20T11:32:04;7.30;98.10
1165;DHT22;571;50.930;6.926;2022-11-20T11:34:33;7.40;98.00
1165;DHT22;571;50.930;6.926;2022-11-20T11:37:01;7.40;97.70
1165;DHT22;571;50.930;6.926;2022-11-20T11:39:30;7.50;97.50
1165;DHT22;571;50.930;6.926;2022-11-20T11:41:58;7.60;97.20
1165;DHT22;571;50.930;6.926;2022-11-20T11:44:29;7.40;97.10
1165;DHT22;571;50.930;6.926;2022-11-20T11:47:23;7.50;97.20
1165;DHT22;571;50.930;6.926;2022-11-20T11:50:13;7.60;97.20
1165;DHT22;571;50.930;6.926;2022-11-20T11:52:43;7.70;96.80
1165;DHT22;571;50.930;6.926;2022-11-20T11:55:16;7.80;96.40
1165;DHT22;571;50.930;6.926;2022-11-20T11:57:49;7.90;96.20
1165;DHT22;571;50.930;6.926;2022-11-20T12:00:20;7.60;97.10
1165;DHT22;571;50.930;6.926;2022-11-20T12:02:54;7.40;97.60
1165;DHT22;571;50.930;6.926;2022-11-20T12:05:27;7.30;98.50
1165;DHT22;571;50.930;6.926;2022-11-20T12:07:58;7.30;98.30
1165;DHT22;571;50.930;6.926;2022-11-20T12:10:41;7.40;98.00
1165;DHT22;571;50.930;6.926;2022-11-20T12:13:20;7.30;98.20
1165;DHT22;571;50.930;6.926;2022-11-20T12:15:48;7.40;98.30
1165;DHT22;571;50.930;6.926;2022-11-20T12:18:17;7.30;98.40
1165;DHT22;571;50.930;6.926;2022-11-20T12:20:54;7.50;98.10
1165;DHT22;571;50.930;6.926;2022-11-20T12:23:27;7.50;97.90
1165;DHT22;571;50.930;6.926;2022-11-20T12:25:57;7.70;97.10
1165;DHT22;571;50.930;6.926;2022-11-20T12:28:43;7.50;98.20
1165;DHT22;571;50.930;6.926;2022-11-20T12:31:27;7.40;98.10
1165;DHT22;571;50.930;6.926;2022-11-20T12:34:11;7.50;98.00
1165;DHT22;571;50.930;6.926;2022-11-20T12:36:45;7.50;98.10
1165;DHT22;571;50.930;6.926;2022-11-20T12:39:33;7.60;97.90
1165;DHT22;571;50.930;6.926;2022-11-20T12:42:18;7.60;97.80
1165;DHT22;571;50.930;6.926;2022-11-20T12:45:18;7.60;97.60
1165;DHT22;571;50.930;6.926;2022-11-20T12:48:09;7.70;97.30
1165;DHT22;571;50.930;6.926;2022-11-20T12:50:46;7.60;97.80
1165;DHT22;571;50.930;6.926;2022-11-20T12:53:25;7.70;97.90
1165;DHT22;571;50.930;6.926;2022-11-20T12:55:58;7.70;97.60
1165;DHT22;571;50.930;6.926;2022-11-20T12:58:37;7.90;97.20
1165;DHT22;571;50.930;6.926;2022-11-20T13:01:12;7.90;96.90
1165;DHT22;571;50.930;6.926;2022-11-20T13:04:08;7.80;97.30
1165;DHT22;571;50.930;6.926;2022-11-20T13:06:39;7.80;97.30
1165;DHT22;571;50.930;6.926;2022-11-20T13:11:41;7.90;97.40
1165;DHT22;571;50.930;6.926;2022-11-20T13:14:17;8.00;97.30
1165;DHT22;571;50.930;6.926;2022-11-20T13:16:50;8.00;97.00
1165;DHT22;571;50.930;6.926;2022-11-20T13:19:19;8.00;97.20
1165;DHT22;571;50.930;6.926;2022-11-20T13:21:48;8.10;97.20
1165;DHT22;571;50.930;6.926;2022-11-20T13:24:25;8.00;97.60
1165;DHT22;571;50.930;6.926;2022-11-20T13:27:18;8.00;97.20
1165;DHT22;571;50.930;6.926;2022-11-20T13:29:47;8.10;97.40
1165;DHT22;571;50.930;6.926;2022-11-20T13:32:24;8.20;97.30
1165;DHT22;571;50.930;6.926;2022-11-20T13:34:52;8.30;97.00
1165;DHT22;571;50.930;6.926;2022-11-20T13:37:29;8.30;96.70
1165;DHT22;571;50.930;6.926;2022-11-20T13:40:20;8.30;96.90
1165;DHT22;571;50.930;6.926;2022-11-20T13:42:55;8.40;96.30
1165;DHT22;571;50.930;6.926;2022-11-20T13:45:24;8.40;96.60
1165;DHT22;571;50.930;6.926;2022-11-20T13:47:52;8.40;96.20
1165;DHT22;571;50.930;6.926;2022-11-20T13:50:24;8.20;96.90
1165;DHT22;571;50.930;6.926;2022-11-20T13:53:01;8.10;97.30
1165;DHT22;571;50.930;6.926;2022-11-20T13:55:38;8.00;97.70
1165;DHT22;571;50.930;6.926;2022-11-20T13:58:23;8.10;97.90
1165;DHT22;571;50.930;6.926;2022-11-20T14:00:57;8.20;97.50
1165;DHT22;571;50.930;6.926;2022-11-20T14:03:25;8.10;97.50
1165;DHT22;571;50.930;6.926;2022-11-20T14:05:58;8.10;97.70
1165;DHT22;571;50.930;6.926;2022-11-20T14:08:32;8.10;98.30
1165;DHT22;571;50.930;6.926;2022-11-20T14:11:13;8.10;97.60
1165;DHT22;571;50.930;6.926;2022-11-20T14:13:54;8.00;97.70
1165;DHT22;571;50.930;6.926;2022-11-20T14:16:21;8.00;97.50
1165;DHT22;571;50.930;6.926;2022-11-20T14:18:48;7.90;98.00
1165;DHT22;571;50.930;6.926;2022-11-20T14:21:22;7.90;98.00
1165;DHT22;571;50.930;6.926;2022-11-20T14:23:52;8.00;98.00
1165;DHT22;571;50.930;6.926;2022-11-20T14:26:21;7.90;97.90
1165;DHT22;571;50.930;6.926;2022-11-20T14:28:49;7.80;98.40
1165;DHT22;571;50.930;6.926;2022-11-20T14:31:23;7.90;98.30
1165;DHT22;571;50.930;6.926;2022-11-20T14:33:51;7.90;98.30
1165;DHT22;571;50.930;6.926;2022-11-20T14:36:20;8.00;98.10
1165;DHT22;571;50.930;6.926;2022-11-20T14:38:48;8.00;98.10
1165;DHT22;571;50.930;6.926;2022-11-20T14:41:18;8.00;97.80
1165;DHT22;571;50.930;6.926;2022-11-20T14:43:52;8.00;98.20
1165;DHT22;571;50.930;6.926;2022-11-20T14:46:21;8.00;98.00
1165;DHT22;571;50.930;6.926;2022-11-20T14:48:50;7.90;98.40
1165;DHT22;571;50.930;6.926;2022-11-20T14:51:27;7.80;98.90
1165;DHT22;571;50.930;6.926;2022-11-20T14:53:54;7.90;98.70
1165;DHT22;571;50.930;6.926;2022-11-20T14:56:22;7.90;98.40
1165;DHT22;571;50.930;6.926;2022-11-20T14:58:56;7.90;98.90
1165;DHT22;571;50.930;6.926;2022-11-20T15:01:26;7.90;98.90
1165;DHT22;571;50.930;6.926;2022-11-20T15:04:00;7.80;99.30
1165;DHT22;571;50.930;6.926;2022-11-20T15:06:27;8.00;98.70
1165;DHT22;571;50.930;6.926;2022-11-20T15:08:54;8.20;98.30
1165;DHT22;571;50.930;6.926;2022-11-20T15:11:27;8.20;98.40
1165;DHT22;571;50.930;6.926;2022-11-20T15:13:56;8.10;98.90
1165;DHT22;571;50.930;6.926;2022-11-20T15:16:24;8.20;98.60
1165;DHT22;571;50.930;6.926;2022-11-20T15:18:56;8.20;99.10
1165;DHT22;571;50.930;6.926;2022-11-20T15:21:22;8.00;99.80
1165;DHT22;571;50.930;6.926;2022-11-20T15:23:50;7.90;99.70
1165;DHT22;571;50.930;6.926;2022-11-20T15:26:22;7.90;99.90
1165;DHT22;571;50.930;6.926;2022-11-20T15:28:50;7.90;99.90
1165;DHT22;571;50.930;6.926;2022-11-20T15:31:20;7.90;99.90
1165;DHT22;571;50.930;6.926;2022-11-20T15:33:47;7.90;99.90
1165;DHT22;571;50.930;6.926;2022-11-20T15:36:14;7.90;99.90
1165;DHT22;571;50.930;6.926;2022-11-20T15:38:41;7.80;99.90
1165;DHT22;571;50.930;6.926;2022-11-20T15:41:08;7.60;99.90
1165;DHT22;571;50.930;6.926;2022-11-20T15:43:35;7.70;99.90
1165;DHT22;571;50.930;6.926;2022-11-20T15:46:04;7.90;99.90
1165;DHT22;571;50.930;6.926;2022-11-20T15:48:36;7.90;99.90
1165;DHT22;571;50.930;6.926;2022-11-20T15:51:11;7.80;99.90
1165;DHT22;571;50.930;6.926;2022-11-20T15:53:41;7.70;99.90
1165;DHT22;571;50.930;6.926;2022-11-20T15:56:11;7.70;99.90
1165;DHT22;571;50.930;6.926;2022-11-20T15:58:39;7.60;99.90
1165;DHT22;571;50.930;6.926;2022-11-20T16:01:10;7.70;99.90
1165;DHT22;571;50.930;6.926;2022-11-20T16:03:38;7.60;99.90
1165;DHT22;571;50.930;6.926;2022-11-20T16:06:05;7.60;99.90
1165;DHT22;571;50.930;6.926;2022-11-20T16:08:32;7.60;99.90
1165;DHT22;571;50.930;6.926;2022-11-20T16:10:58;7.70;99.90
1165;DHT22;571;50.930;6.926;2022-11-20T16:13:25;7.60;99.90
1165;DHT22;571;50.930;6.926;2022-11-20T16:16:21;7.70;99.90
1165;DHT22;571;50.930;6.926;2022-11-20T16:18:50;7.70;99.90
1165;DHT22;571;50.930;6.926;2022-11-20T16:21:17;7.70;99.90
1165;DHT22;571;50.930;6.926;2022-11-20T16:23:44;7.80;99.90
1165;DHT22;571;50.930;6.926;2022-11-20T16:26:11;7.80;99.90
1165;DHT22;571;50.930;6.926;2022-11-20T16:28:38;7.80;99.90
1165;DHT22;571;50.930;6.926;2022-11-20T16:31:09;7.90;99.90
1165;DHT22;571;50.930;6.926;2022-11-20T16:33:36;8.00;99.90
1165;DHT22;571;50.930;6.926;2022-11-20T16:36:08;7.80;99.90
1165;DHT22;571;50.930;6.926;2022-11-20T16:38:35;7.90;99.90
1165;DHT22;571;50.930;6.926;2022-11-20T16:41:03;7.80;99.90
1165;DHT22;571;50.930;6.926;2022-11-20T16:43:30;7.80;99.90
1165;DHT22;571;50.930;6.926;2022-11-20T16:45:56;7.70;99.90
1165;DHT22;571;50.930;6.926;2022-11-20T16:48:23;7.80;99.90
1165;DHT22;571;50.930;6.926;2022-11-20T16:50:51;7.80;99.90
1165;DHT22;571;50.930;6.926;2022-11-20T16:53:21;7.80;99.90
1165;DHT22;571;50.930;6.926;2022-11-20T16:55:48;7.90;99.90
1165;DHT22;571;50.930;6.926;2022-11-20T16:58:15;7.90;99.90
1165;DHT22;571;50.930;6.926;2022-11-20T17:00:42;8.00;99.90
1165;DHT22;571;50.930;6.926;2022-11-20T17:03:09;8.00;99.90
1165;DHT22;571;50.930;6.926;2022-11-20T17:05:36;8.00;99.90
1165;DHT22;571;50.930;6.926;2022-11-20T17:08:03;8.20;99.90
1165;DHT22;571;50.930;6.926;2022-11-20T17:10:31;8.20;99.90
1165;DHT22;571;50.930;6.926;2022-11-20T17:12:58;8.20;99.90
1165;DHT22;571;50.930;6.926;2022-11-20T17:15:25;7.90;99.90
1165;DHT22;571;50.930;6.926;2022-11-20T17:17:52;8.00;99.90
1165;DHT22;571;50.930;6.926;2022-11-20T17:20:18;7.90;99.90
1165;DHT22;571;50.930;6.926;2022-11-20T17:22:45;7.80;99.90
1165;DHT22;571;50.930;6.926;2022-11-20T17:25:12;7.70;99.90
1165;DHT22;571;50.930;6.926;2022-11-20T17:27:40;7.80;99.90
1165;DHT22;571;50.930;6.926;2022-11-20T17:30:07;7.80;99.90
1165;DHT22;571;50.930;6.926;2022-11-20T17:32:34;7.90;99.90
1165;DHT22;571;50.930;6.926;2022-11-20T17:35:01;7.80;99.90
1165;DHT22;571;50.930;6.926;2022-11-20T17:37:28;7.80;99.90
1165;DHT22;571;50.930;6.926;2022-11-20T17:39:54;7.80;99.90
1165;DHT22;571;50.930;6.926;2022-11-20T17:42:22;7.80;99.90
1165;DHT22;571;50.930;6.926;2022-11-20T17:44:55;7.80;99.90
1165;DHT22;571;50.930;6.926;2022-11-20T17:47:23;7.80;99.90
1165;DHT22;571;50.930;6.926;2022-11-20T17:49:50;7.80;99.90
1165;DHT22;571;50.930;6.926;2022-11-20T17:52:18;7.70;99.90
1165;DHT22;571;50.930;6.926;2022-11-20T17:54:44;7.70;99.90
1165;DHT22;571;50.930;6.926;2022-11-20T17:57:11;7.80;99.90
1165;DHT22;571;50.930;6.926;2022-11-20T17:59:57;7.90;99.90
1165;DHT22;571;50.930;6.926;2022-11-20T18:02:24;8.10;99.90
1165;DHT22;571;50.930;6.926;2022-11-20T18:04:53;8.00;99.90
1165;DHT22;571;50.930;6.926;2022-11-20T18:07:20;7.90;99.90
1165;DHT22;571;50.930;6.926;2022-11-20T18:09:46;7.90;99.90
1165;DHT22;571;50.930;6.926;2022-11-20T18:12:14;7.80;99.90
1165;DHT22;571;50.930;6.926;2022-11-20T18:14:42;8.00;99.90
1165;DHT22;571;50.930;6.926;2022-11-20T18:17:12;8.10;99.90
1165;DHT22;571;50.930;6.926;2022-11-20T18:19:42;8.10;99.90
1165;DHT22;571;50.930;6.926;2022-11-20T18:22:09;8.10;99.90
1165;DHT22;571;50.930;6.926;2022-11-20T18:24:36;8.20;99.90
1165;DHT22;571;50.930;6.926;2022-11-20T18:27:05;8.20;99.90
1165;DHT22;571;50.930;6.926;2022-11-20T18:29:32;8.40;99.90
1165;DHT22;571;50.930;6.926;2022-11-20T18:31:59;8.20;99.90
1165;DHT22;571;50.930;6.926;2022-11-20T18:34:28;8.00;99.90
1165;DHT22;571;50.930;6.926;2022-11-20T18:36:55;8.00;99.90
1165;DHT22;571;50.930;6.926;2022-11-20T18:39:23;7.90;99.90
1165;DHT22;571;50.930;6.926;2022-11-20T18:41:50;7.90;99.90
1165;DHT22;571;50.930;6.926;2022-11-20T18:44:35;7.90;99.90
1165;DHT22;571;50.930;6.926;2022-11-20T18:47:18;7.80;99.90
1165;DHT22;571;50.930;6.926;2022-11-20T18:49:48;8.00;99.90
1165;DHT22;571;50.930;6.926;2022-11-20T18:52:20;7.90;99.90
1165;DHT22;571;50.930;6.926;2022-11-20T18:54:47;7.90;99.90
1165;DHT22;571;50.930;6.926;2022-11-20T18:57:15;8.00;99.90
1165;DHT22;571;50.930;6.926;2022-11-20T18:59:42;7.90;99.90
1165;DHT22;571;50.930;6.926;2022-11-20T19:02:10;7.90;99.90
1165;DHT22;571;50.930;6.926;2022-11-20T19:04:37;8.00;99.90
1165;DHT22;571;50.930;6.926;2022-11-20T19:07:08;8.10;99.90
1165;DHT22;571;50.930;6.926;2022-11-20T19:09:36;8.10;99.90
1165;DHT22;571;50.930;6.926;2022-11-20T19:12:04;8.10;99.90
1165;DHT22;571;50.930;6.926;2022-11-20T19:14:31;8.20;99.90
1165;DHT22;571;50.930;6.926;2022-11-20T19:16:57;8.20;99.90
1165;DHT22;571;50.930;6.926;2022-11-20T19:19:24;8.40;99.90
1165;DHT22;571;50.930;6.926;2022-11-20T19:21:54;8.40;99.90
1165;DHT22;571;50.930;6.926;2022-11-20T19:24:27;8.50;99.90
1165;DHT22;571;50.930;6.926;2022-11-20T19:26:55;8.50;99.90
1165;DHT22;571;50.930;6.926;2022-11-20T19:29:24;8.40;99.90
1165;DHT22;571;50.930;6.926;2022-11-20T19:31:51;8.40;99.90
1165;DHT22;571;50.930;6.926;2022-11-20T19:34:18;8.50;99.90
1165;DHT22;571;50.930;6.926;2022-11-20T19:36:45;8.60;99.90
1165;DHT22;571;50.930;6.926;2022-11-20T19:39:12;8.60;99.90
1165;DHT22;571;50.930;6.926;2022-11-20T19:41:41;8.60;99.90
1165;DHT22;571;50.930;6.926;2022-11-20T19:44:09;8.70;99.90
1165;DHT22;571;50.930;6.926;2022-11-20T19:46:37;8.60;99.90
1165;DHT22;571;50.930;6.926;2022-11-20T19:49:05;8.70;99.90
1165;DHT22;571;50.930;6.926;2022-11-20T19:51:43;8.60;99.90
1165;DHT22;571;50.930;6.926;2022-11-20T19:54:26;8.60;99.90
1165;DHT22;571;50.930;6.926;2022-11-20T19:57:14;8.70;99.90
1165;DHT22;571;50.930;6.926;2022-11-20T20:00:10;8.70;99.90
1165;DHT22;571;50.930;6.926;2022-11-20T20:03:15;8.70;99.90
1165;DHT22;571;50.930;6.926;2022-11-20T20:05:44;8.70;99.90
1165;DHT22;571;50.930;6.926;2022-11-20T20:10:47;8.90;99.90
1165;DHT22;571;50.930;6.926;2022-11-20T20:13:17;8.80;99.90
1165;DHT22;571;50.930;6.926;2022-11-20T20:15:44;8.80;99.90
1165;DHT22;571;50.930;6.926;2022-11-20T20:18:14;8.80;99.90
1165;DHT22;571;50.930;6.926;2022-11-20T20:20:41;8.80;99.90
1165;DHT22;571;50.930;6.926;2022-11-20T20:23:08;8.90;99.90
1165;DHT22;571;50.930;6.926;2022-11-20T20:25:35;8.90;99.90
1165;DHT22;571;50.930;6.926;2022-11-20T20:28:03;8.90;99.90
1165;DHT22;571;50.930;6.926;2022-11-20T20:30:31;8.90;99.90
1165;DHT22;571;50.930;6.926;2022-11-20T20:32:58;8.90;99.90
1165;DHT22;571;50.930;6.926;2022-11-20T20:35:25;8.90;99.90
1165;DHT22;571;50.930;6.926;2022-11-20T20:37:52;9.00;99.90
1165;DHT22;571;50.930;6.926;2022-11-20T20:40:18;9.00;99.90
1165;DHT22;571;50.930;6.926;2022-11-20T20:42:45;8.90;99.90
1165;DHT22;571;50.930;6.926;2022-11-20T20:45:12;9.00;99.90